createdAt,value
2019-06-08T00:01:58.887Z,19.84
2019-06-08T00:04:27.390Z,19.74
2019-06-08T00:06:56.006Z,19.64
2019-06-08T00:09:24.737Z,19.58
2019-06-08T00:11:53.429Z,19.54
2019-06-08T00:14:23.320Z,19.51
2019-06-08T00:16:52.123Z,19.48
2019-06-08T00:19:21.522Z,19.40
2019-06-08T00:21:50.058Z,19.37
2019-06-08T00:24:19.824Z,19.31
2019-06-08T00:26:48.476Z,19.25
2019-06-08T00:29:18.302Z,19.34
2019-06-08T00:31:47.079Z,19.45
2019-06-08T00:34:16.556Z,19.53
2019-06-08T00:36:45.673Z,19.58
2019-06-08T00:39:14.706Z,19.63
2019-06-08T00:41:43.506Z,19.65
2019-06-08T00:44:12.109Z,19.67
2019-06-08T00:46:40.779Z,19.68
2019-06-08T00:49:09.410Z,19.65
2019-06-08T00:51:38.088Z,19.61
2019-06-08T00:54:06.823Z,19.57
2019-06-08T00:56:35.510Z,19.47
2019-06-08T00:59:04.257Z,19.34
2019-06-08T01:01:32.791Z,19.22
2019-06-08T01:04:01.475Z,19.06
2019-06-08T01:06:30.040Z,18.93
2019-06-08T01:08:58.610Z,18.93
2019-06-08T01:11:27.291Z,18.84
2019-06-08T01:13:55.977Z,18.78
2019-06-08T01:16:25.038Z,18.74
2019-06-08T01:18:53.690Z,18.71
2019-06-08T01:21:23.284Z,18.66
2019-06-08T01:23:51.983Z,18.69
2019-06-08T01:26:22.151Z,18.66
2019-06-08T01:28:51.001Z,18.74
2019-06-08T01:31:20.376Z,18.77
2019-06-08T01:33:49.013Z,18.76
2019-06-08T01:36:17.589Z,18.71
2019-06-08T01:38:48.843Z,18.68
2019-06-08T01:41:17.543Z,18.68
2019-06-08T01:43:46.109Z,18.63
2019-06-08T01:46:14.807Z,18.50
2019-06-08T01:48:43.377Z,18.49
2019-06-08T01:51:11.961Z,18.41
2019-06-08T01:53:40.594Z,18.32
2019-06-08T01:56:09.279Z,18.29
2019-06-08T01:58:37.881Z,18.24
2019-06-08T02:01:07.027Z,18.21
2019-06-08T02:03:35.734Z,18.16
2019-06-08T02:06:04.356Z,18.14
2019-06-08T02:08:33.006Z,18.11
2019-06-08T02:11:01.625Z,18.06
2019-06-08T02:13:31.013Z,18.02
2019-06-08T02:15:59.637Z,17.92
2019-06-08T02:18:41.912Z,17.91
2019-06-08T02:20:58.607Z,17.84
2019-06-08T02:23:27.284Z,17.83
2019-06-08T02:25:56.024Z,17.79
2019-06-08T02:28:24.700Z,17.79
2019-06-08T02:30:53.384Z,17.76
2019-06-08T02:33:21.954Z,17.69
2019-06-08T02:35:50.552Z,17.63
2019-06-08T02:38:19.256Z,17.65
2019-06-08T02:40:47.901Z,17.65
2019-06-08T02:43:16.735Z,17.59
2019-06-08T02:45:45.422Z,17.56
2019-06-08T02:48:14.064Z,17.49
2019-06-08T02:50:53.519Z,17.51
2019-06-08T02:53:22.858Z,17.47
2019-06-08T02:55:51.540Z,17.45
2019-06-08T02:58:20.975Z,17.49
2019-06-08T03:00:50.655Z,17.54
2019-06-08T03:03:19.433Z,17.57
2019-06-08T03:05:50.733Z,17.54
2019-06-08T03:08:20.732Z,17.60
2019-06-08T03:10:51.928Z,17.71
2019-06-08T03:13:22.880Z,17.75
2019-06-08T03:15:51.514Z,17.77
2019-06-08T03:18:20.057Z,17.86
2019-06-08T03:20:48.696Z,17.96
2019-06-08T03:23:17.380Z,18.06
2019-06-08T03:25:52.996Z,18.07
2019-06-08T03:28:16.416Z,18.12
2019-06-08T03:30:53.175Z,18.14
2019-06-08T03:33:15.410Z,18.16
2019-06-08T03:35:55.455Z,18.20
2019-06-08T03:38:14.237Z,18.22
2019-06-08T03:40:45.153Z,18.29
2019-06-08T03:43:13.232Z,18.46
2019-06-08T03:45:43.050Z,18.55
2019-06-08T03:48:12.193Z,18.64
2019-06-08T03:50:42.063Z,18.71
2019-06-08T03:53:11.212Z,18.81
2019-06-08T03:55:40.516Z,18.90
2019-06-08T03:58:10.570Z,18.98
2019-06-08T04:00:40.429Z,18.98
2019-06-08T04:03:09.119Z,19.18
2019-06-08T04:05:39.807Z,19.26
2019-06-08T04:08:08.054Z,19.39
2019-06-08T04:10:37.644Z,19.56
2019-06-08T04:13:11.404Z,19.61
2019-06-08T04:15:40.403Z,19.56
2019-06-08T04:18:09.163Z,19.74
2019-06-08T04:20:38.076Z,19.79
2019-06-08T04:23:06.760Z,19.89
2019-06-08T04:25:35.421Z,19.91
2019-06-08T04:28:04.072Z,20.11
2019-06-08T04:30:32.667Z,20.15
2019-06-08T04:33:01.166Z,20.28
2019-06-08T04:35:29.856Z,20.36
2019-06-08T04:37:58.477Z,20.44
2019-06-08T04:40:27.161Z,20.52
2019-06-08T04:42:55.736Z,20.59
2019-06-08T04:45:24.302Z,20.69
2019-06-08T04:47:52.986Z,20.84
2019-06-08T04:50:24.024Z,20.96
2019-06-08T04:52:52.008Z,21.10
2019-06-08T04:55:20.651Z,21.19
2019-06-08T04:57:50.842Z,21.23
2019-06-08T05:00:20.268Z,21.33
2019-06-08T05:02:51.139Z,21.51
2019-06-08T05:05:19.240Z,21.61
2019-06-08T05:07:49.758Z,21.60
2019-06-08T05:10:18.346Z,21.63
2019-06-08T05:12:47.748Z,21.86
2019-06-08T05:15:17.590Z,21.80
2019-06-08T05:17:47.491Z,22.00
2019-06-08T05:20:17.189Z,22.09
2019-06-08T05:22:47.578Z,22.30
2019-06-08T05:25:16.444Z,22.47
2019-06-08T05:27:45.400Z,22.56
2019-06-08T05:30:15.021Z,22.71
2019-06-08T05:32:43.754Z,22.93
2019-06-08T05:35:12.784Z,22.93
2019-06-08T05:37:41.575Z,23.06
2019-06-08T05:40:10.312Z,23.17
2019-06-08T05:42:40.601Z,23.34
2019-06-08T05:45:09.900Z,23.57
2019-06-08T05:47:39.758Z,23.75
2019-06-08T05:50:09.628Z,23.84
2019-06-08T05:52:39.756Z,23.95
2019-06-08T05:55:09.368Z,24.03
2019-06-08T05:57:38.002Z,24.18
2019-06-08T06:00:13.158Z,24.10
2019-06-08T06:02:42.246Z,24.23
2019-06-08T06:05:11.279Z,24.32
2019-06-08T06:07:40.572Z,24.48
2019-06-08T06:10:09.504Z,24.47
2019-06-08T06:12:38.147Z,24.61
2019-06-08T06:15:10.058Z,24.72
2019-06-08T06:17:38.705Z,24.90
2019-06-08T06:20:07.840Z,24.93
2019-06-08T06:22:36.528Z,25.13
2019-06-08T06:25:06.950Z,25.45
2019-06-08T06:27:36.509Z,25.69
2019-06-08T06:30:07.914Z,25.92
2019-06-08T06:32:38.688Z,26.03
2019-06-08T06:35:07.379Z,26.25
2019-06-08T06:37:36.018Z,26.26
2019-06-08T06:40:07.102Z,26.27
2019-06-08T06:42:35.688Z,26.67
2019-06-08T06:45:06.724Z,26.85
2019-06-08T06:47:35.256Z,26.87
2019-06-08T06:50:05.184Z,27.00
2019-06-08T06:52:35.899Z,27.28
2019-06-08T06:55:05.741Z,27.31
2019-06-08T06:57:36.397Z,27.64
2019-06-08T07:00:09.513Z,27.92
2019-06-08T07:02:38.156Z,28.04
2019-06-08T07:05:08.636Z,28.09
2019-06-08T07:07:37.263Z,28.12
2019-06-08T07:10:09.050Z,28.16
2019-06-08T07:12:37.764Z,28.32
2019-06-08T07:15:07.429Z,28.45
2019-06-08T07:17:36.094Z,28.74
2019-06-08T07:20:07.158Z,28.91
2019-06-08T07:22:35.881Z,28.72
2019-06-08T07:25:05.114Z,29.01
2019-06-08T07:27:33.747Z,29.09
2019-06-08T07:30:02.624Z,29.07
2019-06-08T07:32:31.261Z,29.21
2019-06-08T07:34:59.836Z,29.46
2019-06-08T07:37:28.450Z,29.82
2019-06-08T07:39:57.192Z,29.92
2019-06-08T07:42:25.801Z,29.97
2019-06-08T07:44:55.087Z,30.24
2019-06-08T07:47:23.905Z,30.46
2019-06-08T07:49:53.264Z,30.43
2019-06-08T07:52:22.004Z,30.71
2019-06-08T07:54:50.988Z,31.08
2019-06-08T07:57:19.686Z,31.23
2019-06-08T07:59:49.181Z,31.33
2019-06-08T08:02:18.791Z,31.52
2019-06-08T08:04:48.431Z,32.88
2019-06-08T08:07:17.070Z,34.21
2019-06-08T08:09:45.600Z,34.30
2019-06-08T08:12:14.240Z,35.43
2019-06-08T08:14:42.866Z,35.94
2019-06-08T08:17:11.445Z,36.16
2019-06-08T08:19:42.203Z,37.25
2019-06-08T08:22:22.089Z,37.05
2019-06-08T08:24:41.161Z,38.23
2019-06-08T08:27:09.801Z,38.36
2019-06-08T08:29:38.515Z,39.19
2019-06-08T08:32:07.568Z,39.48
2019-06-08T08:34:38.175Z,40.13
2019-06-08T08:37:09.498Z,39.95
2019-06-08T08:39:37.791Z,39.40
2019-06-08T08:42:08.477Z,39.92
2019-06-08T08:44:38.039Z,40.42
2019-06-08T08:47:07.624Z,40.90
2019-06-08T08:49:38.024Z,40.14
2019-06-08T08:52:11.235Z,40.44
2019-06-08T08:54:37.785Z,41.28
2019-06-08T08:57:08.416Z,41.20
2019-06-08T08:59:38.211Z,41.40
2019-06-08T09:02:08.354Z,42.16
2019-06-08T09:04:38.018Z,42.35
2019-06-08T09:07:10.230Z,42.00
2019-06-08T09:09:38.662Z,42.92
2019-06-08T09:12:08.313Z,42.83
2019-06-08T09:14:38.749Z,43.35
2019-06-08T09:17:08.593Z,43.98
2019-06-08T09:19:38.217Z,44.42
2019-06-08T09:22:08.577Z,44.29
2019-06-08T09:24:39.041Z,44.36
2019-06-08T09:27:08.209Z,43.48
2019-06-08T09:29:38.818Z,44.15
2019-06-08T09:32:08.276Z,44.24
2019-06-08T09:34:38.622Z,44.11
2019-06-08T09:37:08.075Z,43.51
2019-06-08T09:39:38.560Z,44.01
2019-06-08T09:42:09.053Z,44.89
2019-06-08T09:44:37.906Z,45.50
2019-06-08T09:47:12.158Z,44.79
2019-06-08T09:49:37.766Z,44.64
2019-06-08T09:52:08.431Z,44.90
2019-06-08T09:54:38.485Z,45.76
2019-06-08T09:57:09.030Z,45.56
2019-06-08T09:59:38.574Z,44.35
2019-06-08T10:02:12.411Z,43.79
2019-06-08T10:04:41.001Z,42.28
2019-06-08T10:07:11.737Z,42.80
2019-06-08T10:09:43.242Z,45.09
2019-06-08T10:12:10.712Z,44.89
2019-06-08T10:14:39.295Z,45.07
2019-06-08T10:17:09.020Z,45.63
2019-06-08T10:19:39.913Z,44.63
2019-06-08T10:22:08.742Z,45.50
2019-06-08T10:24:41.173Z,47.17
2019-06-08T10:27:11.026Z,46.70
2019-06-08T10:29:38.354Z,47.88
2019-06-08T10:32:09.218Z,46.63
2019-06-08T10:34:38.794Z,46.83
2019-06-08T10:37:12.722Z,44.77
2019-06-08T10:39:38.058Z,45.92
2019-06-08T10:42:09.780Z,47.40
2019-06-08T10:44:38.195Z,47.78
2019-06-08T10:47:09.989Z,47.13
2019-06-08T10:49:38.405Z,47.54
2019-06-08T10:52:10.654Z,47.89
2019-06-08T10:54:37.997Z,45.44
2019-06-08T10:57:07.759Z,46.55
2019-06-08T10:59:40.293Z,47.30
2019-06-08T11:02:13.438Z,47.34
2019-06-08T11:04:43.153Z,47.83
2019-06-08T11:07:15.537Z,48.93
2019-06-08T11:09:42.369Z,49.10
2019-06-08T11:12:14.566Z,50.01
2019-06-08T11:14:41.316Z,49.02
2019-06-08T11:17:11.210Z,49.01
2019-06-08T11:19:40.065Z,49.25
2019-06-08T11:22:13.885Z,49.63
2019-06-08T11:24:39.040Z,50.14
2019-06-08T11:27:11.118Z,48.90
2019-06-08T11:29:38.508Z,48.93
2019-06-08T11:32:10.911Z,48.64
2019-06-08T11:34:37.972Z,49.27
2019-06-08T11:37:11.352Z,48.86
2019-06-08T11:39:38.258Z,48.99
2019-06-08T11:42:09.836Z,48.09
2019-06-08T11:44:39.023Z,47.03
2019-06-08T11:47:12.197Z,48.32
2019-06-08T11:49:38.111Z,48.76
2019-06-08T11:52:06.956Z,48.76
2019-06-08T11:54:38.047Z,48.48
2019-06-08T11:57:08.363Z,48.06
2019-06-08T11:59:37.524Z,47.51
2019-06-08T12:02:09.078Z,46.78
2019-06-08T12:04:38.415Z,47.05
2019-06-08T12:07:09.532Z,47.51
2019-06-08T12:09:37.423Z,48.48
2019-06-08T12:12:09.056Z,47.60
2019-06-08T12:14:37.695Z,47.90
2019-06-08T12:17:11.776Z,47.65
2019-06-08T12:19:37.721Z,47.78
2019-06-08T12:22:08.778Z,49.30
2019-06-08T12:24:41.950Z,50.27
2019-06-08T12:27:21.736Z,50.08
2019-06-08T12:29:39.020Z,48.88
2019-06-08T12:32:09.371Z,47.59
2019-06-08T12:34:38.466Z,47.62
2019-06-08T12:37:08.786Z,47.99
2019-06-08T12:39:38.809Z,48.39
2019-06-08T12:42:09.618Z,48.70
2019-06-08T12:44:38.447Z,48.36
2019-06-08T12:47:10.614Z,47.06
2019-06-08T12:49:40.124Z,46.93
2019-06-08T12:52:09.963Z,46.71
2019-06-08T12:54:38.199Z,46.75
2019-06-08T12:57:10.159Z,47.44
2019-06-08T12:59:38.527Z,48.30
2019-06-08T13:02:10.567Z,47.66
2019-06-08T13:04:38.404Z,48.79
2019-06-08T13:07:09.697Z,49.53
2019-06-08T13:09:38.418Z,49.78
2019-06-08T13:12:08.021Z,50.96
2019-06-08T13:14:38.543Z,50.78
2019-06-08T13:17:08.612Z,49.66
2019-06-08T13:19:38.584Z,49.61
2019-06-08T13:22:08.964Z,48.89
2019-06-08T13:24:37.885Z,49.21
2019-06-08T13:27:06.922Z,49.25
2019-06-08T13:29:35.625Z,49.31
2019-06-08T13:32:07.849Z,48.17
2019-06-08T13:34:38.666Z,47.05
2019-06-08T13:37:08.331Z,46.81
2019-06-08T13:39:38.815Z,47.58
2019-06-08T13:42:07.819Z,47.09
2019-06-08T13:44:37.794Z,46.47
2019-06-08T13:47:07.630Z,45.30
2019-06-08T13:49:37.683Z,46.48
2019-06-08T13:52:07.918Z,47.79
2019-06-08T13:54:38.197Z,47.62
2019-06-08T13:57:08.523Z,48.22
2019-06-08T13:59:39.003Z,48.03
2019-06-08T14:02:07.826Z,46.60
2019-06-08T14:04:39.487Z,46.11
2019-06-08T14:07:07.800Z,46.23
2019-06-08T14:09:38.271Z,45.05
2019-06-08T14:12:07.734Z,45.05
2019-06-08T14:14:39.664Z,45.49
2019-06-08T14:17:08.659Z,46.07
2019-06-08T14:19:38.533Z,46.76
2019-06-08T14:22:10.421Z,46.67
2019-06-08T14:24:37.939Z,45.91
2019-06-08T14:27:08.193Z,46.34
2019-06-08T14:29:36.973Z,45.69
2019-06-08T14:32:07.773Z,45.75
2019-06-08T14:34:38.633Z,45.39
2019-06-08T14:37:08.598Z,45.17
2019-06-08T14:39:37.502Z,45.09
2019-06-08T14:42:08.218Z,45.70
2019-06-08T14:44:38.105Z,45.83
2019-06-08T14:47:15.652Z,45.61
2019-06-08T14:49:48.753Z,45.41
2019-06-08T14:52:19.341Z,45.48
2019-06-08T14:54:51.142Z,44.47
2019-06-08T14:57:21.273Z,44.11
2019-06-08T14:59:50.359Z,43.83
2019-06-08T15:02:19.472Z,43.27
2019-06-08T15:04:48.519Z,43.20
2019-06-08T15:07:20.058Z,43.48
2019-06-08T15:09:48.010Z,43.78
2019-06-08T15:12:17.822Z,43.36
2019-06-08T15:14:49.556Z,44.03
2019-06-08T15:17:19.304Z,43.80
2019-06-08T15:19:48.173Z,43.10
2019-06-08T15:22:18.744Z,43.36
2019-06-08T15:24:47.876Z,43.15
2019-06-08T15:27:18.391Z,43.19
2019-06-08T15:29:47.735Z,42.78
2019-06-08T15:32:17.892Z,43.30
2019-06-08T15:34:47.721Z,43.00
2019-06-08T15:37:18.599Z,42.72
2019-06-08T15:39:48.591Z,41.83
2019-06-08T15:42:18.036Z,42.42
2019-06-08T15:44:47.998Z,42.15
2019-06-08T15:47:18.037Z,42.19
2019-06-08T15:49:50.189Z,40.79
2019-06-08T15:52:17.582Z,39.18
2019-06-08T15:54:48.302Z,38.72
2019-06-08T15:57:18.014Z,38.56
2019-06-08T15:59:49.049Z,38.21
2019-06-08T16:02:16.958Z,38.17
2019-06-08T16:04:45.597Z,37.47
2019-06-08T16:07:17.353Z,37.58
2019-06-08T16:09:45.829Z,37.43
2019-06-08T16:12:14.431Z,37.20
2019-06-08T16:14:42.994Z,37.48
2019-06-08T16:17:11.706Z,37.10
2019-06-08T16:19:40.346Z,36.41
2019-06-08T16:22:08.991Z,35.64
2019-06-08T16:24:37.659Z,35.04
2019-06-08T16:27:06.221Z,33.94
2019-06-08T16:29:35.140Z,33.04
2019-06-08T16:32:03.877Z,32.68
2019-06-08T16:34:35.646Z,32.35
2019-06-08T16:37:04.345Z,32.17
2019-06-08T16:39:33.045Z,32.10
2019-06-08T16:42:02.139Z,31.93
2019-06-08T16:44:32.188Z,31.97
2019-06-08T16:47:00.905Z,31.61
2019-06-08T16:49:29.485Z,31.39
2019-06-08T16:51:58.149Z,31.30
2019-06-08T16:54:26.823Z,31.09
2019-06-08T16:57:08.938Z,30.90
2019-06-08T16:59:25.718Z,30.53
2019-06-08T17:01:54.282Z,30.35
2019-06-08T17:04:22.889Z,30.09
2019-06-08T17:06:51.449Z,29.90
2019-06-08T17:09:20.063Z,29.63
2019-06-08T17:11:48.621Z,29.35
2019-06-08T17:14:17.120Z,29.19
2019-06-08T17:16:45.717Z,29.08
2019-06-08T17:19:14.371Z,28.99
2019-06-08T17:21:42.991Z,28.94
2019-06-08T17:24:11.574Z,28.89
2019-06-08T17:26:40.806Z,28.79
2019-06-08T17:29:09.541Z,28.71
2019-06-08T17:31:39.230Z,28.72
2019-06-08T17:34:08.085Z,28.57
2019-06-08T17:36:36.719Z,28.55
2019-06-08T17:39:07.003Z,28.44
2019-06-08T17:41:36.097Z,28.29
2019-06-08T17:44:04.749Z,28.17
2019-06-08T17:46:34.568Z,28.11
2019-06-08T17:49:03.459Z,28.03
2019-06-08T17:51:32.797Z,27.87
2019-06-08T17:54:01.408Z,27.78
2019-06-08T17:56:30.081Z,27.69
2019-06-08T17:58:58.718Z,27.49
2019-06-08T18:01:27.361Z,27.46
2019-06-08T18:03:57.445Z,27.32
2019-06-08T18:06:27.196Z,27.16
2019-06-08T18:08:58.596Z,27.14
2019-06-08T18:11:27.960Z,27.00
2019-06-08T18:13:58.806Z,26.88
2019-06-08T18:16:27.912Z,26.90
2019-06-08T18:18:57.748Z,26.87
2019-06-08T18:21:28.250Z,26.88
2019-06-08T18:23:57.283Z,26.82
2019-06-08T18:26:27.827Z,27.04
2019-06-08T18:28:58.138Z,27.03
2019-06-08T18:31:27.680Z,27.00
2019-06-08T18:33:57.851Z,27.08
2019-06-08T18:36:27.634Z,27.15
2019-06-08T18:38:58.174Z,27.12
2019-06-08T18:41:27.205Z,27.11
2019-06-08T18:43:58.201Z,27.28
2019-06-08T18:46:27.184Z,27.35
2019-06-08T18:48:57.870Z,27.22
2019-06-08T18:51:29.335Z,27.31
2019-06-08T18:54:08.657Z,27.33
2019-06-08T18:56:28.327Z,27.37
2019-06-08T18:58:58.278Z,27.37
2019-06-08T19:01:27.509Z,27.32
2019-06-08T19:03:57.927Z,27.28
2019-06-08T19:06:27.843Z,27.29
2019-06-08T19:08:58.053Z,27.23
2019-06-08T19:11:28.560Z,27.08
2019-06-08T19:13:58.051Z,26.98
2019-06-08T19:16:28.511Z,26.72
2019-06-08T19:18:58.104Z,26.54
2019-06-08T19:21:27.783Z,26.35
2019-06-08T19:23:56.972Z,26.34
2019-06-08T19:26:28.010Z,26.25
2019-06-08T19:28:57.798Z,26.25
2019-06-08T19:31:27.674Z,26.02
2019-06-08T19:33:58.103Z,26.25
2019-06-08T19:36:28.376Z,26.42
2019-06-08T19:38:57.691Z,26.59
2019-06-08T19:41:28.567Z,26.60
2019-06-08T19:43:58.423Z,26.56
2019-06-08T19:46:27.330Z,26.45
2019-06-08T19:48:58.738Z,26.45
2019-06-08T19:51:28.163Z,26.53
2019-06-08T19:53:58.350Z,26.61
2019-06-08T19:56:28.161Z,26.61
2019-06-08T19:59:03.924Z,26.50
2019-06-08T20:01:28.395Z,26.31
2019-06-08T20:03:58.116Z,26.08
2019-06-08T20:06:27.937Z,26.32
2019-06-08T20:08:57.512Z,26.25
2019-06-08T20:11:29.471Z,26.23
2019-06-08T20:13:57.981Z,26.30
2019-06-08T20:16:27.885Z,26.30
2019-06-08T20:18:58.276Z,26.25
2019-06-08T20:21:27.584Z,26.12
2019-06-08T20:23:58.471Z,26.07
2019-06-08T20:26:28.437Z,25.77
2019-06-08T20:29:11.543Z,25.86
2019-06-08T20:31:30.559Z,25.77
2019-06-08T20:33:59.251Z,25.84
2019-06-08T20:36:28.847Z,25.86
2019-06-08T20:38:58.456Z,25.70
2019-06-08T20:41:27.766Z,25.69
2019-06-08T20:43:59.153Z,25.69
2019-06-08T20:46:28.680Z,25.57
2019-06-08T20:48:57.758Z,25.50
2019-06-08T20:51:28.959Z,25.53
2019-06-08T20:53:57.640Z,25.43
2019-06-08T20:56:28.036Z,25.30
2019-06-08T20:58:57.433Z,25.21
2019-06-08T21:01:26.137Z,25.16
2019-06-08T21:03:56.996Z,25.13
2019-06-08T21:06:25.074Z,25.15
2019-06-08T21:08:54.925Z,25.13
2019-06-08T21:11:24.060Z,25.09
2019-06-08T21:13:53.906Z,25.03
2019-06-08T21:16:22.776Z,24.97
2019-06-08T21:18:51.316Z,24.98
2019-06-08T21:21:19.884Z,24.94
2019-06-08T21:23:52.553Z,24.83
2019-06-08T21:26:18.865Z,24.89
2019-06-08T21:28:52.809Z,24.84
2019-06-08T21:31:20.317Z,24.73
2019-06-08T21:33:50.983Z,24.73
2019-06-08T21:36:19.176Z,24.70
2019-06-08T21:38:52.316Z,24.68
2019-06-08T21:41:20.219Z,24.65
2019-06-08T21:43:51.735Z,24.64
2019-06-08T21:46:19.139Z,24.61
2019-06-08T21:48:50.222Z,24.57
2019-06-08T21:51:18.031Z,24.47
2019-06-08T21:53:48.253Z,24.44
2019-06-08T21:56:18.164Z,24.45
2019-06-08T21:58:48.618Z,24.36
2019-06-08T22:01:18.200Z,24.25
2019-06-08T22:03:49.702Z,24.12
2019-06-08T22:06:18.346Z,24.04
2019-06-08T22:08:48.126Z,23.90
2019-06-08T22:11:17.700Z,23.85
2019-06-08T22:13:47.662Z,23.80
2019-06-08T22:16:16.563Z,23.78
2019-06-08T22:18:47.303Z,23.62
2019-06-08T22:21:17.994Z,23.64
2019-06-08T22:23:47.620Z,23.67
2019-06-08T22:26:17.781Z,23.68
2019-06-08T22:28:48.214Z,23.66
2019-06-08T22:31:23.127Z,23.61
2019-06-08T22:33:52.588Z,23.53
2019-06-08T22:36:21.146Z,23.43
2019-06-08T22:38:49.725Z,23.21
2019-06-08T22:41:18.293Z,23.20
2019-06-08T22:43:48.118Z,23.16
2019-06-08T22:46:17.804Z,23.21
2019-06-08T22:48:47.735Z,23.22
2019-06-08T22:51:18.762Z,23.19
2019-06-08T22:53:47.816Z,23.19
2019-06-08T22:56:18.330Z,23.16
2019-06-08T22:58:47.939Z,23.17
2019-06-08T23:01:18.355Z,23.21
2019-06-08T23:03:47.581Z,23.24
2019-06-08T23:06:17.647Z,23.25
2019-06-08T23:08:48.098Z,23.30
2019-06-08T23:11:18.013Z,23.34
2019-06-08T23:13:47.199Z,23.41
2019-06-08T23:16:17.999Z,23.41
2019-06-08T23:18:47.830Z,23.39
2019-06-08T23:21:18.077Z,23.28
2019-06-08T23:23:47.669Z,23.19
2019-06-08T23:26:18.343Z,23.13
2019-06-08T23:28:47.276Z,23.09
2019-06-08T23:31:24.241Z,23.08
2019-06-08T23:33:48.206Z,23.08
2019-06-08T23:38:48.161Z,22.93
2019-06-08T23:41:17.759Z,22.85
2019-06-08T23:43:48.059Z,22.81
2019-06-08T23:46:18.148Z,22.77
2019-06-08T23:48:48.454Z,22.74
2019-06-08T23:51:18.066Z,22.70
2019-06-08T23:53:47.820Z,22.67
2019-06-08T23:56:18.293Z,22.67
2019-06-08T23:58:48.231Z,22.67
